sensor_id;sensor_type;location;lat;lon;timestamp;pressure;altitude;pressure_sealevel;temperature;humidity
64841;BME280;51307;52.162;7.560;2023-12-20T00:02:12;100862.38;;;6.40;94.39
64841;BME280;51307;52.162;7.560;2023-12-20T00:04:37;100857.47;;;6.67;92.81
64841;BME280;51307;52.162;7.560;2023-12-20T00:07:03;100855.03;;;6.54;93.51
64841;BME280;51307;52.162;7.560;2023-12-20T00:09:28;100865.72;;;6.43;93.47
64841;BME280;51307;52.162;7.560;2023-12-20T00:11:54;100867.41;;;6.44;94.56
64841;BME280;51307;52.162;7.560;2023-12-20T00:14:19;100869.25;;;6.43;95.00
64841;BME280;51307;52.162;7.560;2023-12-20T00:16:45;100864.84;;;6.32;95.61
64841;BME280;51307;52.162;7.560;2023-12-20T00:19:11;100862.16;;;6.53;93.95
64841;BME280;51307;52.162;7.560;2023-12-20T00:21:36;100884.69;;;6.28;95.20
64841;BME280;51307;52.162;7.560;2023-12-20T00:24:02;100884.97;;;6.56;93.94
64841;BME280;51307;52.162;7.560;2023-12-20T00:26:27;100878.78;;;6.46;94.94
64841;BME280;51307;52.162;7.560;2023-12-20T00:28:53;100883.25;;;6.24;95.56
64841;BME280;51307;52.162;7.560;2023-12-20T00:31:18;100881.78;;;6.62;94.70
64841;BME280;51307;52.162;7.560;2023-12-20T00:33:44;100881.31;;;6.47;95.56
64841;BME280;51307;52.162;7.560;2023-12-20T00:36:11;100885.38;;;6.09;96.11
64841;BME280;51307;52.162;7.560;2023-12-20T00:38:36;100875.53;;;6.42;94.46
64841;BME280;51307;52.162;7.560;2023-12-20T00:41:02;100874.81;;;6.40;95.21
64841;BME280;51307;52.162;7.560;2023-12-20T00:43:28;100869.44;;;6.30;93.81
64841;BME280;51307;52.162;7.560;2023-12-20T00:45:53;100870.50;;;6.39;93.16
64841;BME280;51307;52.162;7.560;2023-12-20T00:48:19;100875.84;;;6.49;92.46
64841;BME280;51307;52.162;7.560;2023-12-20T00:50:44;100875.72;;;6.29;93.12
64841;BME280;51307;52.162;7.560;2023-12-20T00:53:09;100869.25;;;6.22;94.24
64841;BME280;51307;52.162;7.560;2023-12-20T00:55:35;100874.69;;;6.42;92.50
64841;BME280;51307;52.162;7.560;2023-12-20T00:58:00;100871.59;;;6.36;91.78
64841;BME280;51307;52.162;7.560;2023-12-20T01:00:26;100871.97;;;6.32;91.86
64841;BME280;51307;52.162;7.560;2023-12-20T01:02:51;100859.00;;;6.38;91.95
64841;BME280;51307;52.162;7.560;2023-12-20T01:05:20;100853.00;;;6.15;92.77
64841;BME280;51307;52.162;7.560;2023-12-20T01:07:48;100861.09;;;6.14;91.43
64841;BME280;51307;52.162;7.560;2023-12-20T01:10:14;100861.22;;;6.12;91.79
64841;BME280;51307;52.162;7.560;2023-12-20T01:12:40;100860.22;;;6.13;91.75
64841;BME280;51307;52.162;7.560;2023-12-20T01:15:05;100863.28;;;6.09;92.08
64841;BME280;51307;52.162;7.560;2023-12-20T01:17:31;100862.44;;;6.29;91.39
64841;BME280;51307;52.162;7.560;2023-12-20T01:19:56;100856.72;;;5.92;93.30
64841;BME280;51307;52.162;7.560;2023-12-20T01:22:23;100863.69;;;6.04;92.52
64841;BME280;51307;52.162;7.560;2023-12-20T01:24:49;100856.97;;;6.31;91.17
64841;BME280;51307;52.162;7.560;2023-12-20T01:27:14;100862.78;;;6.15;91.13
64841;BME280;51307;52.162;7.560;2023-12-20T01:29:40;100852.81;;;6.28;90.22
64841;BME280;51307;52.162;7.560;2023-12-20T01:32:05;100858.91;;;6.19;91.07
64841;BME280;51307;52.162;7.560;2023-12-20T01:34:31;100856.56;;;6.04;90.84
64841;BME280;51307;52.162;7.560;2023-12-20T01:36:56;100859.00;;;6.38;89.39
64841;BME280;51307;52.162;7.560;2023-12-20T01:39:22;100843.66;;;6.21;89.49
64841;BME280;51307;52.162;7.560;2023-12-20T01:41:47;100855.50;;;6.17;89.36
64841;BME280;51307;52.162;7.560;2023-12-20T01:44:13;100861.59;;;6.29;88.97
64841;BME280;51307;52.162;7.560;2023-12-20T01:46:38;100851.84;;;6.08;90.21
64841;BME280;51307;52.162;7.560;2023-12-20T01:49:04;100846.31;;;6.21;88.90
64841;BME280;51307;52.162;7.560;2023-12-20T01:51:30;100844.28;;;6.13;89.24
64841;BME280;51307;52.162;7.560;2023-12-20T01:53:57;100849.94;;;5.78;90.32
64841;BME280;51307;52.162;7.560;2023-12-20T01:56:24;100856.84;;;5.69;91.35
64841;BME280;51307;52.162;7.560;2023-12-20T01:58:50;100855.84;;;5.81;91.33
64841;BME280;51307;52.162;7.560;2023-12-20T02:01:16;100863.03;;;5.58;92.36
64841;BME280;51307;52.162;7.560;2023-12-20T02:03:42;100871.06;;;5.35;92.54
64841;BME280;51307;52.162;7.560;2023-12-20T02:06:09;100860.72;;;5.65;91.24
64841;BME280;51307;52.162;7.560;2023-12-20T02:08:35;100860.75;;;5.86;90.06
64841;BME280;51307;52.162;7.560;2023-12-20T02:11:01;100845.13;;;5.71;90.28
64841;BME280;51307;52.162;7.560;2023-12-20T02:13:27;100847.88;;;5.81;89.77
64841;BME280;51307;52.162;7.560;2023-12-20T02:15:54;100841.91;;;5.56;90.44
64841;BME280;51307;52.162;7.560;2023-12-20T02:18:20;100842.00;;;5.99;89.24
64841;BME280;51307;52.162;7.560;2023-12-20T02:20:45;100843.44;;;5.70;89.16
64841;BME280;51307;52.162;7.560;2023-12-20T02:23:10;100844.44;;;5.90;88.31
64841;BME280;51307;52.162;7.560;2023-12-20T02:25:36;100856.53;;;5.83;88.43
64841;BME280;51307;52.162;7.560;2023-12-20T02:28:04;100848.44;;;5.64;88.93
64841;BME280;51307;52.162;7.560;2023-12-20T02:30:30;100843.31;;;5.72;89.02
64841;BME280;51307;52.162;7.560;2023-12-20T02:32:56;100852.50;;;5.89;87.91
64841;BME280;51307;52.162;7.560;2023-12-20T02:35:21;100856.03;;;5.89;88.11
64841;BME280;51307;52.162;7.560;2023-12-20T02:37:46;100847.97;;;5.47;88.90
64841;BME280;51307;52.162;7.560;2023-12-20T02:40:12;100850.94;;;5.65;89.17
64841;BME280;51307;52.162;7.560;2023-12-20T02:42:37;100854.22;;;5.69;88.55
64841;BME280;51307;52.162;7.560;2023-12-20T02:45:03;100830.41;;;5.67;89.36
64841;BME280;51307;52.162;7.560;2023-12-20T02:47:29;100837.22;;;5.60;89.43
64841;BME280;51307;52.162;7.560;2023-12-20T02:49:55;100840.59;;;5.62;89.50
64841;BME280;51307;52.162;7.560;2023-12-20T02:52:23;100833.25;;;5.54;89.28
64841;BME280;51307;52.162;7.560;2023-12-20T02:54:48;100831.94;;;5.81;88.40
64841;BME280;51307;52.162;7.560;2023-12-20T02:57:14;100821.88;;;5.64;88.81
64841;BME280;51307;52.162;7.560;2023-12-20T02:59:39;100826.19;;;5.44;89.44
64841;BME280;51307;52.162;7.560;2023-12-20T03:02:05;100827.41;;;5.93;87.95
64841;BME280;51307;52.162;7.560;2023-12-20T03:04:30;100824.34;;;5.55;89.19
64841;BME280;51307;52.162;7.560;2023-12-20T03:06:56;100822.78;;;5.42;89.71
64841;BME280;51307;52.162;7.560;2023-12-20T03:09:21;100814.47;;;5.46;90.34
64841;BME280;51307;52.162;7.560;2023-12-20T03:11:47;100823.41;;;5.45;89.67
64841;BME280;51307;52.162;7.560;2023-12-20T03:14:12;100827.56;;;5.59;88.85
64841;BME280;51307;52.162;7.560;2023-12-20T03:16:37;100818.38;;;5.63;88.52
64841;BME280;51307;52.162;7.560;2023-12-20T03:19:03;100825.09;;;5.35;89.10
64841;BME280;51307;52.162;7.560;2023-12-20T03:21:29;100813.03;;;5.42;88.72
64841;BME280;51307;52.162;7.560;2023-12-20T03:23:54;100813.63;;;5.46;89.61
64841;BME280;51307;52.162;7.560;2023-12-20T03:26:19;100810.06;;;5.35;90.43
64841;BME280;51307;52.162;7.560;2023-12-20T03:28:45;100808.63;;;5.52;89.32
64841;BME280;51307;52.162;7.560;2023-12-20T03:31:10;100810.06;;;5.56;89.01
64841;BME280;51307;52.162;7.560;2023-12-20T03:33:36;100797.94;;;5.43;89.39
64841;BME280;51307;52.162;7.560;2023-12-20T03:36:01;100797.47;;;5.49;90.30
64841;BME280;51307;52.162;7.560;2023-12-20T03:38:27;100798.91;;;5.42;89.65
64841;BME280;51307;52.162;7.560;2023-12-20T03:40:52;100805.56;;;4.92;92.18
64841;BME280;51307;52.162;7.560;2023-12-20T03:43:18;100793.91;;;5.27;90.33
64841;BME280;51307;52.162;7.560;2023-12-20T03:45:43;100797.81;;;5.44;90.23
64841;BME280;51307;52.162;7.560;2023-12-20T03:48:09;100789.56;;;5.26;90.46
64841;BME280;51307;52.162;7.560;2023-12-20T03:50:35;100804.00;;;5.45;88.90
64841;BME280;51307;52.162;7.560;2023-12-20T03:53:00;100795.03;;;5.46;89.02
64841;BME280;51307;52.162;7.560;2023-12-20T03:55:26;100790.72;;;5.45;88.74
64841;BME280;51307;52.162;7.560;2023-12-20T03:57:51;100792.66;;;5.43;89.19
64841;BME280;51307;52.162;7.560;2023-12-20T04:00:17;100790.72;;;5.45;89.12
64841;BME280;51307;52.162;7.560;2023-12-20T04:02:43;100796.63;;;5.69;88.04
64841;BME280;51307;52.162;7.560;2023-12-20T04:05:09;100800.44;;;5.55;88.13
64841;BME280;51307;52.162;7.560;2023-12-20T04:07:35;100798.03;;;5.52;88.23
64841;BME280;51307;52.162;7.560;2023-12-20T04:10:02;100799.66;;;5.44;87.98
64841;BME280;51307;52.162;7.560;2023-12-20T04:12:29;100796.38;;;5.51;89.13
64841;BME280;51307;52.162;7.560;2023-12-20T04:14:54;100795.56;;;5.39;88.16
64841;BME280;51307;52.162;7.560;2023-12-20T04:17:20;100796.75;;;5.68;88.15
64841;BME280;51307;52.162;7.560;2023-12-20T04:19:50;100796.53;;;5.38;88.12
64841;BME280;51307;52.162;7.560;2023-12-20T04:22:17;100788.94;;;5.66;87.62
64841;BME280;51307;52.162;7.560;2023-12-20T04:24:43;100789.22;;;5.52;88.31
64841;BME280;51307;52.162;7.560;2023-12-20T04:27:08;100800.28;;;5.36;88.83
64841;BME280;51307;52.162;7.560;2023-12-20T04:29:34;100807.84;;;5.73;88.31
64841;BME280;51307;52.162;7.560;2023-12-20T04:31:59;100799.22;;;5.81;86.94
64841;BME280;51307;52.162;7.560;2023-12-20T04:34:25;100803.50;;;5.72;87.37
64841;BME280;51307;52.162;7.560;2023-12-20T04:36:51;100793.00;;;5.70;87.66
64841;BME280;51307;52.162;7.560;2023-12-20T04:39:17;100804.94;;;5.44;87.83
64841;BME280;51307;52.162;7.560;2023-12-20T04:41:42;100790.16;;;5.62;87.84
64841;BME280;51307;52.162;7.560;2023-12-20T04:44:08;100787.75;;;5.59;87.68
64841;BME280;51307;52.162;7.560;2023-12-20T04:46:33;100779.31;;;5.54;88.72
64841;BME280;51307;52.162;7.560;2023-12-20T04:48:59;100805.72;;;5.34;88.98
64841;BME280;51307;52.162;7.560;2023-12-20T04:51:24;100785.50;;;5.43;88.93
64841;BME280;51307;52.162;7.560;2023-12-20T04:53:50;100790.03;;;5.64;88.43
64841;BME280;51307;52.162;7.560;2023-12-20T04:56:15;100788.00;;;5.56;89.47
64841;BME280;51307;52.162;7.560;2023-12-20T04:58:42;100780.38;;;5.84;87.98
64841;BME280;51307;52.162;7.560;2023-12-20T05:01:08;100794.41;;;5.53;88.94
64841;BME280;51307;52.162;7.560;2023-12-20T05:03:35;100780.50;;;5.61;89.02
64841;BME280;51307;52.162;7.560;2023-12-20T05:06:00;100777.84;;;5.82;88.02
64841;BME280;51307;52.162;7.560;2023-12-20T05:08:26;100783.41;;;6.00;86.93
64841;BME280;51307;52.162;7.560;2023-12-20T05:10:54;100780.97;;;5.66;88.44
64841;BME280;51307;52.162;7.560;2023-12-20T05:13:19;100790.00;;;5.85;87.34
64841;BME280;51307;52.162;7.560;2023-12-20T05:15:45;100788.03;;;5.77;87.14
64841;BME280;51307;52.162;7.560;2023-12-20T05:18:11;100786.72;;;5.71;87.12
64841;BME280;51307;52.162;7.560;2023-12-20T05:20:36;100789.81;;;5.77;87.62
64841;BME280;51307;52.162;7.560;2023-12-20T05:23:03;100775.91;;;5.63;88.52
64841;BME280;51307;52.162;7.560;2023-12-20T05:25:28;100788.66;;;5.69;87.45
64841;BME280;51307;52.162;7.560;2023-12-20T05:27:54;100775.00;;;5.74;87.62
64841;BME280;51307;52.162;7.560;2023-12-20T05:30:19;100777.91;;;5.92;86.17
64841;BME280;51307;52.162;7.560;2023-12-20T05:32:45;100767.47;;;5.58;87.91
64841;BME280;51307;52.162;7.560;2023-12-20T05:35:10;100782.38;;;5.70;87.39
64841;BME280;51307;52.162;7.560;2023-12-20T05:37:35;100770.34;;;5.66;87.33
64841;BME280;51307;52.162;7.560;2023-12-20T05:40:01;100784.13;;;5.60;86.75
64841;BME280;51307;52.162;7.560;2023-12-20T05:42:27;100771.66;;;5.93;85.87
64841;BME280;51307;52.162;7.560;2023-12-20T05:44:52;100780.72;;;5.90;86.13
64841;BME280;51307;52.162;7.560;2023-12-20T05:47:17;100768.53;;;5.67;86.78
64841;BME280;51307;52.162;7.560;2023-12-20T05:49:45;100782.63;;;5.67;87.16
64841;BME280;51307;52.162;7.560;2023-12-20T05:52:10;100765.03;;;5.66;87.19
64841;BME280;51307;52.162;7.560;2023-12-20T05:54:36;100778.69;;;5.62;87.63
64841;BME280;51307;52.162;7.560;2023-12-20T05:57:01;100784.94;;;5.39;89.11
64841;BME280;51307;52.162;7.560;2023-12-20T05:59:27;100783.50;;;5.68;87.71
64841;BME280;51307;52.162;7.560;2023-12-20T06:01:53;100787.75;;;5.80;87.40
64841;BME280;51307;52.162;7.560;2023-12-20T06:04:18;100774.31;;;5.93;87.12
64841;BME280;51307;52.162;7.560;2023-12-20T06:06:44;100777.28;;;5.79;87.66
64841;BME280;51307;52.162;7.560;2023-12-20T06:09:10;100766.00;;;5.86;87.21
64841;BME280;51307;52.162;7.560;2023-12-20T06:11:36;100761.53;;;5.87;87.38
64841;BME280;51307;52.162;7.560;2023-12-20T06:14:01;100769.44;;;5.77;87.58
64841;BME280;51307;52.162;7.560;2023-12-20T06:16:27;100759.38;;;5.81;88.10
64841;BME280;51307;52.162;7.560;2023-12-20T06:18:52;100756.47;;;5.63;87.45
64841;BME280;51307;52.162;7.560;2023-12-20T06:21:18;100765.41;;;5.83;86.78
64841;BME280;51307;52.162;7.560;2023-12-20T06:23:43;100769.97;;;5.92;86.17
64841;BME280;51307;52.162;7.560;2023-12-20T06:26:09;100780.03;;;5.98;85.70
64841;BME280;51307;52.162;7.560;2023-12-20T06:28:34;100775.00;;;5.74;86.66
64841;BME280;51307;52.162;7.560;2023-12-20T06:31:00;100769.75;;;5.63;86.61
64841;BME280;51307;52.162;7.560;2023-12-20T06:33:26;100756.53;;;5.94;86.00
64841;BME280;51307;52.162;7.560;2023-12-20T06:35:52;100759.97;;;5.84;85.54
64841;BME280;51307;52.162;7.560;2023-12-20T06:38:18;100768.66;;;5.65;86.59
64841;BME280;51307;52.162;7.560;2023-12-20T06:40:44;100766.28;;;5.62;86.09
64841;BME280;51307;52.162;7.560;2023-12-20T06:43:12;100754.53;;;5.86;85.66
64841;BME280;51307;52.162;7.560;2023-12-20T06:45:37;100766.59;;;5.69;86.04
64841;BME280;51307;52.162;7.560;2023-12-20T06:48:03;100754.16;;;5.69;85.42
64841;BME280;51307;52.162;7.560;2023-12-20T06:50:28;100754.94;;;5.81;84.68
64841;BME280;51307;52.162;7.560;2023-12-20T06:52:54;100745.72;;;5.85;84.78
64841;BME280;51307;52.162;7.560;2023-12-20T06:55:19;100740.38;;;6.06;83.61
64841;BME280;51307;52.162;7.560;2023-12-20T06:57:45;100733.41;;;6.05;83.52
64841;BME280;51307;52.162;7.560;2023-12-20T07:00:14;100741.84;;;5.89;83.80
64841;BME280;51307;52.162;7.560;2023-12-20T07:02:39;100727.78;;;5.78;84.80
64841;BME280;51307;52.162;7.560;2023-12-20T07:05:05;100740.47;;;5.74;84.01
64841;BME280;51307;52.162;7.560;2023-12-20T07:07:31;100738.91;;;5.71;84.32
64841;BME280;51307;52.162;7.560;2023-12-20T07:09:57;100739.13;;;5.80;83.79
64841;BME280;51307;52.162;7.560;2023-12-20T07:12:22;100731.09;;;5.91;83.80
64841;BME280;51307;52.162;7.560;2023-12-20T07:14:47;100738.81;;;5.73;84.15
64841;BME280;51307;52.162;7.560;2023-12-20T07:17:13;100731.94;;;5.70;84.49
64841;BME280;51307;52.162;7.560;2023-12-20T07:19:41;100739.38;;;5.98;83.44
64841;BME280;51307;52.162;7.560;2023-12-20T07:22:06;100724.19;;;6.10;82.67
64841;BME280;51307;52.162;7.560;2023-12-20T07:24:33;100754.94;;;5.60;84.08
64841;BME280;51307;52.162;7.560;2023-12-20T07:27:02;100734.38;;;6.04;83.20
64841;BME280;51307;52.162;7.560;2023-12-20T07:29:27;100744.69;;;5.77;83.80
64841;BME280;51307;52.162;7.560;2023-12-20T07:31:53;100748.31;;;5.97;83.19
64841;BME280;51307;52.162;7.560;2023-12-20T07:34:20;100741.13;;;5.87;83.55
64841;BME280;51307;52.162;7.560;2023-12-20T07:36:46;100750.81;;;5.98;83.65
64841;BME280;51307;52.162;7.560;2023-12-20T07:39:11;100743.91;;;5.86;83.36
64841;BME280;51307;52.162;7.560;2023-12-20T07:41:37;100745.91;;;6.15;82.92
64841;BME280;51307;52.162;7.560;2023-12-20T07:44:04;100753.06;;;5.93;83.25
64841;BME280;51307;52.162;7.560;2023-12-20T07:46:30;100742.16;;;5.96;83.84
64841;BME280;51307;52.162;7.560;2023-12-20T07:48:55;100738.41;;;5.78;84.20
64841;BME280;51307;52.162;7.560;2023-12-20T07:51:21;100790.28;;;6.03;83.48
64841;BME280;51307;52.162;7.560;2023-12-20T07:53:46;100744.44;;;5.80;83.85
64841;BME280;51307;52.162;7.560;2023-12-20T07:56:19;100751.91;;;5.96;83.67
64841;BME280;51307;52.162;7.560;2023-12-20T07:58:45;100746.44;;;5.87;84.71
64841;BME280;51307;52.162;7.560;2023-12-20T08:01:11;100742.44;;;5.93;84.63
64841;BME280;51307;52.162;7.560;2023-12-20T08:03:38;100748.03;;;6.00;84.63
64841;BME280;51307;52.162;7.560;2023-12-20T08:06:03;100739.84;;;6.13;84.10
64841;BME280;51307;52.162;7.560;2023-12-20T08:08:29;100750.94;;;6.18;84.35
64841;BME280;51307;52.162;7.560;2023-12-20T08:10:55;100747.88;;;6.22;83.97
64841;BME280;51307;52.162;7.560;2023-12-20T08:13:20;100745.81;;;6.05;85.54
64841;BME280;51307;52.162;7.560;2023-12-20T08:15:50;100755.09;;;6.11;84.94
64841;BME280;51307;52.162;7.560;2023-12-20T08:18:15;100737.81;;;5.95;85.75
64841;BME280;51307;52.162;7.560;2023-12-20T08:20:41;100746.41;;;6.09;85.43
64841;BME280;51307;52.162;7.560;2023-12-20T08:23:06;100745.97;;;6.03;86.39
64841;BME280;51307;52.162;7.560;2023-12-20T08:25:32;100738.78;;;5.94;85.80
64841;BME280;51307;52.162;7.560;2023-12-20T08:27:57;100741.84;;;5.89;86.92
64841;BME280;51307;52.162;7.560;2023-12-20T08:30:23;100751.03;;;5.85;86.79
64841;BME280;51307;52.162;7.560;2023-12-20T08:32:48;100748.41;;;6.16;86.20
64841;BME280;51307;52.162;7.560;2023-12-20T08:35:14;100746.94;;;6.02;86.13
64841;BME280;51307;52.162;7.560;2023-12-20T08:37:39;100735.75;;;5.99;86.41
64841;BME280;51307;52.162;7.560;2023-12-20T08:40:05;100747.75;;;5.93;86.46
64841;BME280;51307;52.162;7.560;2023-12-20T08:42:31;100739.84;;;6.13;85.50
64841;BME280;51307;52.162;7.560;2023-12-20T08:44:59;100741.53;;;5.83;85.51
64841;BME280;51307;52.162;7.560;2023-12-20T08:47:25;100734.47;;;5.72;86.40
64841;BME280;51307;52.162;7.560;2023-12-20T08:49:50;100730.44;;;5.99;85.70
64841;BME280;51307;52.162;7.560;2023-12-20T08:52:16;100727.94;;;6.07;85.82
64841;BME280;51307;52.162;7.560;2023-12-20T08:54:41;100725.13;;;5.99;85.85
64841;BME280;51307;52.162;7.560;2023-12-20T08:57:07;100717.09;;;6.20;85.31
64841;BME280;51307;52.162;7.560;2023-12-20T08:59:33;100717.50;;;6.15;86.04
64841;BME280;51307;52.162;7.560;2023-12-20T09:01:58;100717.72;;;6.02;86.11
64841;BME280;51307;52.162;7.560;2023-12-20T09:04:24;100713.19;;;6.24;84.53
64841;BME280;51307;52.162;7.560;2023-12-20T09:06:50;100727.38;;;6.03;86.17
64841;BME280;51307;52.162;7.560;2023-12-20T09:09:15;100720.94;;;6.06;86.23
64841;BME280;51307;52.162;7.560;2023-12-20T09:11:41;100708.41;;;6.08;86.71
64841;BME280;51307;52.162;7.560;2023-12-20T09:14:07;100693.41;;;6.07;86.90
64841;BME280;51307;52.162;7.560;2023-12-20T09:16:32;100691.38;;;6.20;87.20
64841;BME280;51307;52.162;7.560;2023-12-20T09:18:58;100698.41;;;6.31;86.83
64841;BME280;51307;52.162;7.560;2023-12-20T09:21:23;100709.97;;;6.20;86.77
64841;BME280;51307;52.162;7.560;2023-12-20T09:23:49;100707.78;;;5.95;88.09
64841;BME280;51307;52.162;7.560;2023-12-20T09:26:14;100704.00;;;5.97;87.86
64841;BME280;51307;52.162;7.560;2023-12-20T09:28:40;100697.75;;;6.08;87.56
64841;BME280;51307;52.162;7.560;2023-12-20T09:31:06;100691.00;;;6.35;86.17
64841;BME280;51307;52.162;7.560;2023-12-20T09:33:32;100693.56;;;6.05;87.54
64841;BME280;51307;52.162;7.560;2023-12-20T09:35:58;100694.00;;;6.11;86.99
64841;BME280;51307;52.162;7.560;2023-12-20T09:38:24;100697.03;;;6.06;87.78
64841;BME280;51307;52.162;7.560;2023-12-20T09:40:49;100741.94;;;6.09;88.23
64841;BME280;51307;52.162;7.560;2023-12-20T09:43:19;100700.53;;;6.06;88.18
64841;BME280;51307;52.162;7.560;2023-12-20T09:45:46;100704.66;;;6.20;88.22
64841;BME280;51307;52.162;7.560;2023-12-20T09:48:13;100701.22;;;5.99;88.87
64841;BME280;51307;52.162;7.560;2023-12-20T09:50:40;100743.28;;;6.24;88.66
64841;BME280;51307;52.162;7.560;2023-12-20T09:53:08;100726.56;;;6.13;88.52
64841;BME280;51307;52.162;7.560;2023-12-20T09:55:36;100718.13;;;5.77;91.48
64841;BME280;51307;52.162;7.560;2023-12-20T09:58:01;100730.97;;;5.71;92.44
64841;BME280;51307;52.162;7.560;2023-12-20T10:00:27;100738.63;;;5.96;92.23
64841;BME280;51307;52.162;7.560;2023-12-20T10:02:59;100727.47;;;5.92;94.96
64841;BME280;51307;52.162;7.560;2023-12-20T10:05:28;100728.69;;;5.88;95.56
64841;BME280;51307;52.162;7.560;2023-12-20T10:07:54;100735.94;;;5.86;94.96
64841;BME280;51307;52.162;7.560;2023-12-20T10:10:20;100728.97;;;6.16;94.54
64841;BME280;51307;52.162;7.560;2023-12-20T10:13:21;100734.66;;;6.01;94.82
64841;BME280;51307;52.162;7.560;2023-12-20T10:15:46;100741.63;;;6.02;94.10
64841;BME280;51307;52.162;7.560;2023-12-20T10:18:12;100734.84;;;5.88;94.36
64841;BME280;51307;52.162;7.560;2023-12-20T10:20:40;100729.47;;;5.79;94.96
64841;BME280;51307;52.162;7.560;2023-12-20T10:23:06;100725.56;;;6.04;94.54
64841;BME280;51307;52.162;7.560;2023-12-20T10:25:31;100731.41;;;5.98;94.76
64841;BME280;51307;52.162;7.560;2023-12-20T10:28:16;100719.81;;;5.99;94.06
64841;BME280;51307;52.162;7.560;2023-12-20T10:30:48;100731.94;;;5.70;95.13
64841;BME280;51307;52.162;7.560;2023-12-20T10:33:13;100719.41;;;5.82;95.69
64841;BME280;51307;52.162;7.560;2023-12-20T10:35:39;100722.06;;;6.03;93.88
64841;BME280;51307;52.162;7.560;2023-12-20T10:38:06;100702.94;;;6.10;94.25
64841;BME280;51307;52.162;7.560;2023-12-20T10:40:36;100715.06;;;6.02;93.78
64841;BME280;51307;52.162;7.560;2023-12-20T10:43:02;100706.41;;;6.00;93.90
64841;BME280;51307;52.162;7.560;2023-12-20T10:45:29;100702.47;;;5.95;93.89
64841;BME280;51307;52.162;7.560;2023-12-20T10:47:56;100714.56;;;6.18;92.91
64841;BME280;51307;52.162;7.560;2023-12-20T10:50:22;100728.66;;;6.09;93.92
64841;BME280;51307;52.162;7.560;2023-12-20T10:52:50;100709.13;;;5.89;93.87
64841;BME280;51307;52.162;7.560;2023-12-20T10:55:21;100700.81;;;6.03;93.02
64841;BME280;51307;52.162;7.560;2023-12-20T10:57:50;100693.91;;;6.22;92.63
64841;BME280;51307;52.162;7.560;2023-12-20T11:00:18;100683.44;;;6.30;92.66
64841;BME280;51307;52.162;7.560;2023-12-20T11:02:43;100689.59;;;6.00;93.68
64841;BME280;51307;52.162;7.560;2023-12-20T11:07:47;100684.34;;;6.10;93.13
64841;BME280;51307;52.162;7.560;2023-12-20T11:10:32;100662.09;;;6.61;90.68
64841;BME280;51307;52.162;7.560;2023-12-20T11:13:20;100662.00;;;6.22;91.95
64841;BME280;51307;52.162;7.560;2023-12-20T11:15:47;100661.22;;;6.41;91.48
64841;BME280;51307;52.162;7.560;2023-12-20T11:18:13;100662.31;;;6.38;91.58
64841;BME280;51307;52.162;7.560;2023-12-20T11:20:40;100655.91;;;6.51;90.76
64841;BME280;51307;52.162;7.560;2023-12-20T11:23:06;100665.09;;;6.27;90.95
64841;BME280;51307;52.162;7.560;2023-12-20T11:25:54;100672.34;;;6.25;90.75
64841;BME280;51307;52.162;7.560;2023-12-20T11:28:24;100665.34;;;6.24;89.88
64841;BME280;51307;52.162;7.560;2023-12-20T11:30:52;100656.47;;;6.45;89.71
64841;BME280;51307;52.162;7.560;2023-12-20T11:33:25;100638.69;;;6.26;92.08
64841;BME280;51307;52.162;7.560;2023-12-20T11:35:51;100648.78;;;6.42;90.01
64841;BME280;51307;52.162;7.560;2023-12-20T11:38:20;100646.69;;;6.45;90.02
64841;BME280;51307;52.162;7.560;2023-12-20T11:40:48;100638.69;;;6.45;90.32
64841;BME280;51307;52.162;7.560;2023-12-20T11:43:30;100635.22;;;6.45;89.75
64841;BME280;51307;52.162;7.560;2023-12-20T11:46:03;100632.41;;;6.46;89.12
64841;BME280;51307;52.162;7.560;2023-12-20T11:48:30;100624.56;;;6.35;89.85
64841;BME280;51307;52.162;7.560;2023-12-20T11:50:56;100625.84;;;6.60;88.26
64841;BME280;51307;52.162;7.560;2023-12-20T11:53:22;100613.97;;;6.64;88.48
64841;BME280;51307;52.162;7.560;2023-12-20T11:55:49;100612.69;;;6.68;89.14
64841;BME280;51307;52.162;7.560;2023-12-20T11:58:14;100612.28;;;6.44;88.92
64841;BME280;51307;52.162;7.560;2023-12-20T12:00:42;100598.84;;;6.55;89.15
64841;BME280;51307;52.162;7.560;2023-12-20T12:03:08;100620.53;;;6.60;90.35
64841;BME280;51307;52.162;7.560;2023-12-20T12:05:34;100621.50;;;6.39;92.88
64841;BME280;51307;52.162;7.560;2023-12-20T12:08:02;100617.44;;;6.35;93.76
64841;BME280;51307;52.162;7.560;2023-12-20T12:10:28;100624.88;;;6.61;92.64
64841;BME280;51307;52.162;7.560;2023-12-20T12:12:54;100626.81;;;6.30;93.57
64841;BME280;51307;52.162;7.560;2023-12-20T12:15:20;100652.88;;;6.55;94.03
64841;BME280;51307;52.162;7.560;2023-12-20T12:17:56;100665.09;;;6.27;91.21
64841;BME280;51307;52.162;7.560;2023-12-20T12:20:23;100658.03;;;6.06;87.81
64841;BME280;51307;52.162;7.560;2023-12-20T12:23:03;100669.47;;;5.97;88.39
64841;BME280;51307;52.162;7.560;2023-12-20T12:25:30;100655.69;;;5.82;88.51
64841;BME280;51307;52.162;7.560;2023-12-20T12:27:57;100659.72;;;6.07;87.17
64841;BME280;51307;52.162;7.560;2023-12-20T12:30:23;100664.28;;;5.65;88.91
64841;BME280;51307;52.162;7.560;2023-12-20T12:32:50;100666.41;;;5.71;88.49
64841;BME280;51307;52.162;7.560;2023-12-20T12:35:16;100664.53;;;5.83;89.55
64841;BME280;51307;52.162;7.560;2023-12-20T12:37:41;100669.78;;;5.31;91.75
64841;BME280;51307;52.162;7.560;2023-12-20T12:40:10;100679.63;;;5.61;90.27
64841;BME280;51307;52.162;7.560;2023-12-20T12:42:37;100678.06;;;5.80;90.60
64841;BME280;51307;52.162;7.560;2023-12-20T12:45:03;100672.63;;;5.60;91.12
64841;BME280;51307;52.162;7.560;2023-12-20T12:47:30;100668.09;;;5.72;90.88
64841;BME280;51307;52.162;7.560;2023-12-20T12:49:56;100661.56;;;5.76;91.60
64841;BME280;51307;52.162;7.560;2023-12-20T12:52:21;100654.34;;;5.36;93.12
64841;BME280;51307;52.162;7.560;2023-12-20T12:54:47;100651.38;;;5.81;91.84
64841;BME280;51307;52.162;7.560;2023-12-20T12:57:14;100638.88;;;5.62;91.89
64841;BME280;51307;52.162;7.560;2023-12-20T12:59:40;100640.53;;;5.63;91.81